Time;durP1;ratioP1;P1;durP2;ratioP2;P2;SDS_P1;SDS_P2;PMS_P1;PMS_P2;Temp;Humidity;BMP_temperature;BMP_pressure;BME280_temperature;BME280_humidity;BME280_pressure;Samples;Min_cycle;Max_cycle;Signal;HPM_P1;HPM_P2
2022/09/27 00:03:17;;;;;;;18.23;7.65;;;;;;;9.97;99.50;99081.16;10396889;28;20064;-79
2022/09/27 00:08:18;;;;;;;16.98;6.88;;;;;;;10.01;99.33;99086.38;10399672;28;20045;-79
2022/09/27 00:13:20;;;;;;;13.18;6.10;;;;;;;9.96;99.37;99095.13;10394768;28;20080;-79
2022/09/27 00:18:22;;;;;;;17.55;6.80;;;;;;;9.92;99.42;99083.81;10399047;28;20050;-79
2022/09/27 00:23:23;;;;;;;15.68;6.40;;;;;;;9.95;99.31;99094.25;10400336;28;20057;-79
2022/09/27 00:28:26;;;;;;;11.68;5.43;;;;;;;9.99;99.47;99092.50;10390354;28;20053;-80
2022/09/27 00:33:27;;;;;;;11.98;5.35;;;;;;;10.00;99.29;99092.47;10395028;28;20433;-79
2022/09/27 00:38:29;;;;;;;9.65;4.28;;;;;;;9.98;99.23;99085.53;10399957;28;20076;-80
2022/09/27 00:43:47;;;;;;;9.02;4.30;;;;;;;9.94;99.26;99083.81;10401839;28;20064;-79
2022/09/27 00:49:00;;;;;;;9.77;3.83;;;;;;;9.86;98.95;99097.81;10388299;28;20049;-79
2022/09/27 00:54:06;;;;;;;8.98;3.30;;;;;;;9.81;99.00;99096.09;10382270;28;20514;-80
2022/09/27 00:59:13;;;;;;;12.52;3.10;;;;;;;9.82;98.94;99088.25;10397561;28;20053;-80
2022/09/27 01:04:21;;;;;;;13.75;2.70;;;;;;;9.74;98.85;99095.25;10391733;28;20057;-80
2022/09/27 01:09:23;;;;;;;9.57;2.22;;;;;;;9.75;98.73;99089.16;10380978;28;20045;-79
2022/09/27 01:14:43;;;;;;;6.22;1.70;;;;;;;9.66;98.51;99097.94;10380707;28;20115;-79
2022/09/27 01:20:18;;;;;;;9.70;1.60;;;;;;;9.68;98.54;99100.53;10404762;28;20072;-80
2022/09/27 01:25:42;;;;;;;3.33;1.13;;;;;;;9.61;98.28;99091.88;10390036;28;20072;-79
2022/09/27 01:31:15;;;;;;;3.78;1.17;;;;;;;9.56;98.25;99091.03;10390029;28;20061;-79
2022/09/27 01:36:29;;;;;;;7.70;1.27;;;;;;;9.46;98.22;99092.84;10383681;28;20125;-81
2022/09/27 01:41:43;;;;;;;3.63;1.00;;;;;;;9.47;98.16;99089.34;10372961;28;20130;-81
2022/09/27 01:46:55;;;;;;;3.53;0.80;;;;;;;9.42;98.12;99085.88;10379691;28;20057;-81
2022/09/27 01:52:10;;;;;;;5.07;0.70;;;;;;;9.37;97.91;99090.28;10378588;28;20073;-80
2022/09/27 01:57:19;;;;;;;5.93;1.20;;;;;;;9.40;98.20;99081.53;10374219;28;20061;-78
2022/09/27 02:02:24;;;;;;;2.60;1.00;;;;;;;9.38;98.00;99081.53;10364954;28;20057;-78
2022/09/27 02:07:55;;;;;;;;;;;;;;;9.44;97.95;99085.88;10386555;28;20060;-79
2022/09/27 02:13:11;;;;;;;4.72;1.30;;;;;;;9.35;98.04;99087.69;10383548;28;20021;-79
2022/09/27 02:18:20;;;;;;;6.97;1.33;;;;;;;9.33;97.98;99096.38;10370344;28;20785;-80
2022/09/27 02:23:25;;;;;;;4.30;1.30;;;;;;;9.32;98.10;99086.81;10399115;28;20061;-80
2022/09/27 02:28:42;;;;;;;3.85;1.20;;;;;;;9.29;98.23;99092.94;10371492;28;20237;-81
2022/09/27 02:33:51;;;;;;;8.30;1.70;;;;;;;9.26;98.09;99092.91;10351695;28;20057;-81
2022/09/27 02:38:53;;;;;;;9.98;1.77;;;;;;;9.29;98.20;99095.53;10366233;28;20042;-81
2022/09/27 02:44:01;;;;;;;7.90;2.13;;;;;;;9.25;98.45;99095.53;10363473;28;20061;-81
2022/09/27 02:49:31;;;;;;;9.98;3.10;;;;;;;9.28;98.36;99101.63;10378625;28;20048;-80
2022/09/27 02:55:13;;;;;;;10.32;3.30;;;;;;;9.29;98.61;99089.44;10347978;28;20519;-81
2022/09/27 03:00:46;;;;;;;11.98;3.22;;;;;;;9.30;98.67;99083.34;10396102;28;20418;-81
2022/09/27 03:06:15;;;;;;;9.75;3.50;;;;;;;9.35;98.77;99081.56;10367686;28;20053;-82
2022/09/27 03:11:17;;;;;;;8.05;3.42;;;;;;;9.37;98.73;99082.44;10368352;28;20059;-81
2022/09/27 03:16:19;;;;;;;14.18;3.58;;;;;;;9.32;99.00;99077.25;10362593;28;20529;-83
2022/09/27 03:21:39;;;;;;;14.32;3.45;;;;;;;9.26;99.07;99079.84;10380017;28;20057;-83
2022/09/27 03:26:42;;;;;;;11.65;3.25;;;;;;;9.32;98.93;99076.34;10368865;28;20049;-83
2022/09/27 03:31:44;;;;;;;9.07;3.25;;;;;;;9.31;98.94;99075.50;10364153;28;20046;-84
2022/09/27 03:37:02;;;;;;;9.43;2.60;;;;;;;9.28;99.07;99070.28;10359032;28;20778;-84
2022/09/27 03:42:04;;;;;;;8.65;2.15;;;;;;;9.14;99.05;99069.47;10394171;28;20137;-84
2022/09/27 03:47:06;;;;;;;5.25;2.15;;;;;;;9.14;99.06;99070.38;10372678;28;20144;-84
2022/09/27 03:52:07;;;;;;;6.47;2.17;;;;;;;9.09;98.88;99072.13;10374242;28;20567;-83
2022/09/27 03:57:09;;;;;;;7.78;1.90;;;;;;;9.02;99.01;99078.22;10372657;28;20448;-83
2022/09/27 04:02:12;;;;;;;5.88;1.35;;;;;;;8.98;98.77;99081.75;10372266;28;20050;-84
2022/09/27 04:07:33;;;;;;;8.77;1.83;;;;;;;8.95;98.69;99076.53;10386854;28;20053;-83
2022/09/27 04:12:34;;;;;;;4.20;1.48;;;;;;;8.91;99.02;99080.03;10394853;28;20053;-83
2022/09/27 04:17:39;;;;;;;5.43;1.83;;;;;;;8.86;98.87;99072.22;10358443;28;20088;-82
2022/09/27 04:23:10;;;;;;;6.28;2.53;;;;;;;8.79;98.88;99080.94;10344258;28;20056;-83
2022/09/27 04:28:18;;;;;;;5.25;2.28;;;;;;;8.83;98.84;99075.69;10359937;28;20067;-82
2022/09/27 04:33:20;;;;;;;8.80;3.20;;;;;;;8.86;98.88;99085.25;10378259;28;20053;-82
2022/09/27 04:38:35;;;;;;;8.35;3.00;;;;;;;8.90;98.93;99094.81;10380351;28;20042;-82
2022/09/27 04:43:37;;;;;;;8.98;3.08;;;;;;;8.85;98.77;99091.34;10377894;28;20818;-81
2022/09/27 04:48:40;;;;;;;6.75;2.95;;;;;;;8.81;98.83;99087.91;10402060;28;20049;-82
2022/09/27 04:53:43;;;;;;;14.38;3.72;;;;;;;8.86;98.90;99093.09;10386268;28;20137;-82
2022/09/27 04:58:45;;;;;;;9.05;3.20;;;;;;;8.82;98.65;99096.59;10360811;28;20069;-81
2022/09/27 05:03:49;;;;;;;12.18;3.10;;;;;;;8.79;98.80;99101.81;10392086;28;20836;-82
2022/09/27 05:08:50;;;;;;;10.20;2.42;;;;;;;8.74;98.84;99100.97;10358423;28;20088;-81
2022/09/27 05:13:52;;;;;;;7.80;2.70;;;;;;;8.75;98.83;99110.50;10398061;28;20049;-81
2022/09/27 05:18:55;;;;;;;6.25;2.20;;;;;;;8.78;98.72;99115.72;10378328;28;20041;-82
2022/09/27 05:24:17;;;;;;;12.98;4.22;;;;;;;8.74;98.82;99114.00;10408136;28;20053;-80
2022/09/27 05:29:18;;;;;;;7.30;2.65;;;;;;;8.67;98.78;99123.56;10389931;28;20056;-80
2022/09/27 05:34:36;;;;;;;8.95;2.17;;;;;;;8.72;98.90;99131.41;10378985;28;20056;-81
2022/09/27 05:39:38;;;;;;;7.75;1.90;;;;;;;8.69;99.05;99126.19;10388870;28;20037;-80
2022/09/27 05:44:40;;;;;;;7.13;1.73;;;;;;;8.65;98.98;99123.59;10381800;28;20046;-81
2022/09/27 05:49:42;;;;;;;5.78;2.08;;;;;;;8.75;98.84;99131.38;10377402;28;20056;-81
2022/09/27 05:54:45;;;;;;;9.10;1.83;;;;;;;8.77;98.93;99140.09;10369889;28;20049;-80
2022/09/27 05:59:49;;;;;;;9.20;1.83;;;;;;;8.71;98.68;99143.59;10378841;28;20042;-80
2022/09/27 06:04:53;;;;;;;4.78;2.58;;;;;;;8.70;98.67;99139.22;10398368;28;20049;-80
2022/09/27 06:10:17;;;;;;;2.40;1.35;;;;;;;8.75;98.77;99147.03;10369003;28;20050;-80
2022/09/27 06:15:20;;;;;;;5.47;2.38;;;;;;;8.73;98.71;99140.97;10380708;28;20293;-80
2022/09/27 06:20:22;;;;;;;3.38;1.45;;;;;;;8.72;98.55;99144.44;10377679;28;20046;-79
2022/09/27 06:25:25;;;;;;;6.35;1.10;;;;;;;8.80;98.68;99145.31;10378491;28;20056;-79
2022/09/27 06:30:43;;;;;;;5.97;1.30;;;;;;;8.81;98.46;99150.53;10380075;28;20140;-80
2022/09/27 06:36:07;;;;;;;25.27;22.80;;;;;;;8.79;98.47;99154.88;10378118;28;20052;-81
2022/09/27 06:41:12;;;;;;;10.55;1.30;;;;;;;8.93;98.50;99157.47;10373093;28;20054;-80
2022/09/27 06:46:41;;;;;;;4.93;1.77;;;;;;;8.87;98.31;99161.81;10361658;28;20088;-80
2022/09/27 06:51:43;;;;;;;2.78;1.30;;;;;;;9.03;98.24;99174.81;10373414;28;20066;-80
2022/09/27 06:56:48;;;;;;;8.70;1.30;;;;;;;9.15;98.23;99173.06;10361083;28;20461;-80
2022/09/27 07:01:51;;;;;;;4.32;0.98;;;;;;;9.17;98.22;99182.66;10366144;28;20050;-81
2022/09/27 07:07:02;;;;;;;3.90;1.20;;;;;;;9.40;97.93;99183.41;10378204;28;20513;-81
2022/09/27 07:12:07;;;;;;;3.85;1.05;;;;;;;9.44;97.81;99191.22;10359486;28;20080;-82
2022/09/27 07:17:09;;;;;;;4.43;0.85;;;;;;;9.55;97.66;99199.06;10353101;28;20053;-81
2022/09/27 07:22:14;;;;;;;4.72;1.08;;;;;;;9.59;97.41;99205.97;10350024;28;20053;-80
2022/09/27 07:27:19;;;;;;;2.35;0.90;;;;;;;9.58;97.26;99199.03;10360799;28;20049;-82
2022/09/27 07:32:20;;;;;;;4.45;0.80;;;;;;;9.71;96.98;99210.28;10368256;28;20049;-82
2022/09/27 07:37:27;;;;;;;2.67;0.77;;;;;;;9.63;97.09;99206.84;10328265;28;20054;-82
2022/09/27 07:42:37;;;;;;;3.50;0.70;;;;;;;9.69;96.66;99212.91;10299303;28;20054;-83
2022/09/27 07:47:40;;;;;;;4.65;0.80;;;;;;;9.81;96.53;99205.91;10335034;28;20064;-82
2022/09/27 07:52:54;;;;;;;2.40;0.77;;;;;;;9.79;96.18;99215.47;10328334;28;20061;-82
2022/09/27 07:58:40;;;;;;;3.20;0.90;;;;;;;9.75;95.76;99217.25;10347285;28;20048;-83
2022/09/27 08:09:34;;;;;;;7.13;1.00;;;;;;;9.52;95.41;99230.44;10344638;28;20045;-82
2022/09/27 08:14:35;;;;;;;2.70;0.73;;;;;;;9.45;95.52;99245.22;10321557;28;20049;-83
2022/09/27 08:19:48;;;;;;;3.55;0.55;;;;;;;9.41;95.67;99245.25;10349914;28;20547;-83
2022/09/27 08:25:10;;;;;;;1.40;0.75;;;;;;;9.40;95.54;99243.50;10358454;28;20059;-81
2022/09/27 08:30:18;;;;;;;5.95;1.00;;;;;;;9.37;95.44;99252.25;10348069;28;20374;-82
2022/09/27 08:35:19;;;;;;;5.75;0.75;;;;;;;9.46;95.48;99270.50;10362716;28;20045;-84
2022/09/27 08:40:23;;;;;;;2.85;0.88;;;;;;;9.47;95.42;99269.63;10344507;28;20049;-83
2022/09/27 08:46:09;;;;;;;4.25;0.88;;;;;;;9.53;95.44;99272.22;10334287;28;20058;-83
2022/09/27 08:51:35;;;;;;;3.78;0.90;;;;;;;9.60;95.45;99280.91;10352955;28;20049;-78
2022/09/27 08:56:36;;;;;;;7.55;1.17;;;;;;;9.64;95.64;99280.03;10359374;28;20133;-78
2022/09/27 09:01:39;;;;;;;6.40;0.98;;;;;;;9.54;95.64;99292.22;10380282;28;20076;-78
2022/09/27 09:06:59;;;;;;;4.05;1.33;;;;;;;9.36;95.56;99298.38;10400357;28;20468;-77
2022/09/27 09:12:47;;;;;;;3.90;0.98;;;;;;;9.25;95.66;99310.59;10356967;28;20112;-78
2022/09/27 09:18:26;;;;;;;3.53;0.95;;;;;;;9.22;95.72;99309.72;10371262;28;20267;-81
2022/09/27 09:24:23;;;;;;;3.47;1.10;;;;;;;9.18;95.65;99303.63;10365510;28;20065;-81
2022/09/27 09:30:14;;;;;;;3.03;1.20;;;;;;;9.25;95.96;99315.81;10333499;28;20058;-80
2022/09/27 09:35:36;;;;;;;5.43;1.70;;;;;;;9.26;96.08;99311.44;10232383;28;20059;-80
2022/09/27 09:40:45;;;;;;;12.85;3.45;;;;;;;9.28;96.16;99322.78;10363159;28;20053;-80
2022/09/27 09:45:55;;;;;;;7.10;2.42;;;;;;;9.34;96.31;99318.41;10384666;28;20080;-82
2022/09/27 09:51:01;;;;;;;2.92;1.05;;;;;;;9.40;96.12;99324.50;10394338;28;20041;-83
2022/09/27 09:56:09;;;;;;;7.55;2.75;;;;;;;9.40;96.43;99325.38;10361944;28;20132;-81
2022/09/27 10:01:17;;;;;;;4.05;0.90;;;;;;;9.35;96.28;99329.72;10359736;28;20051;-81
2022/09/27 10:06:20;;;;;;;5.28;1.40;;;;;;;9.32;96.50;99328.00;10376476;28;20049;-81
2022/09/27 10:11:25;;;;;;;5.45;1.17;;;;;;;9.41;96.46;99323.63;10382815;28;20049;-80
2022/09/27 10:16:47;;;;;;;3.25;1.05;;;;;;;9.42;96.40;99317.53;10360702;28;20687;-81
2022/09/27 10:21:50;;;;;;;4.07;1.00;;;;;;;9.49;96.61;99329.72;10368816;28;20156;-82
2022/09/27 10:26:58;;;;;;;4.50;1.42;;;;;;;9.61;96.60;99327.06;10374069;28;20128;-82
2022/09/27 10:32:03;;;;;;;2.42;1.33;;;;;;;9.72;96.80;99327.91;10368366;28;20413;-82
2022/09/27 10:37:12;;;;;;;4.45;1.23;;;;;;;9.84;96.74;99327.00;10375792;28;20477;-81
2022/09/27 10:42:36;;;;;;;2.35;1.20;;;;;;;9.89;97.05;99325.25;10369210;28;20413;-84
2022/09/27 10:47:41;;;;;;;3.90;0.95;;;;;;;9.79;96.44;99327.88;10373160;28;20532;-82
2022/09/27 10:53:20;;;;;;;4.80;1.67;;;;;;;9.87;96.47;99327.00;10383132;28;20124;-83
2022/09/27 10:58:33;;;;;;;6.05;1.30;;;;;;;10.09;96.34;99326.94;10371961;28;20057;-82
2022/09/27 11:03:45;;;;;;;3.47;1.10;;;;;;;10.19;96.25;99322.50;10375343;28;20057;-81
2022/09/27 11:08:48;;;;;;;2.30;1.15;;;;;;;10.24;96.05;99324.22;10384016;28;20088;-82
2022/09/27 11:14:06;;;;;;;3.97;1.58;;;;;;;10.31;95.92;99317.19;10365490;28;20153;-82
2022/09/27 11:19:14;;;;;;;5.32;1.88;;;;;;;10.51;95.87;99308.41;10364598;28;20041;-82
2022/09/27 11:24:42;;;;;;;3.55;1.42;;;;;;;10.50;95.71;99315.41;10349779;28;20049;-80
2022/09/27 11:29:59;;;;;;;4.45;1.15;;;;;;;10.57;95.58;99318.84;10393237;28;20460;-80
2022/09/27 11:35:57;;;;;;;5.25;1.30;;;;;;;10.70;95.40;99323.09;10395027;28;20046;-81
2022/09/27 11:41:33;;;;;;;7.18;1.33;;;;;;;10.90;95.20;99328.22;10369079;28;20053;-81
2022/09/27 11:46:37;;;;;;;10.20;2.63;;;;;;;10.93;94.99;99317.72;10395499;28;20057;-81
2022/09/27 11:52:06;;;;;;;5.70;1.50;;;;;;;11.11;94.65;99327.19;10365999;28;20073;-81
2022/09/27 11:57:33;;;;;;;5.20;1.50;;;;;;;11.07;94.13;99328.06;10373735;28;20064;-80
2022/09/27 12:02:57;;;;;;;2.17;0.85;;;;;;;10.98;93.35;99324.69;10407474;28;20141;-79
2022/09/27 12:08:07;;;;;;;4.82;1.00;;;;;;;10.95;92.99;99320.31;10402317;28;20053;-80
2022/09/27 12:13:13;;;;;;;5.88;1.10;;;;;;;10.83;92.75;99310.81;10398963;28;20091;-80
2022/09/27 12:18:31;;;;;;;3.08;1.13;;;;;;;10.64;92.68;99317.91;10380233;28;20053;-82
2022/09/27 12:23:45;;;;;;;4.63;0.68;;;;;;;10.24;92.18;99320.75;10385816;28;20049;-81
2022/09/27 12:29:12;;;;;;;0.55;0.40;;;;;;;9.95;91.62;99326.97;10386024;28;20057;-82
2022/09/27 12:34:35;;;;;;;0.82;0.32;;;;;;;9.89;91.59;99338.34;10398591;28;20080;-81
2022/09/27 12:39:48;;;;;;;2.85;0.65;;;;;;;9.78;91.26;99341.84;10395712;28;20041;-82
2022/09/27 12:45:04;;;;;;;2.75;0.80;;;;;;;9.67;91.49;99344.50;10361001;28;20060;-83
2022/09/27 12:50:20;;;;;;;1.50;0.70;;;;;;;9.54;91.96;99348.88;10383508;28;20096;-82
2022/09/27 12:55:50;;;;;;;1.23;0.70;;;;;;;9.44;92.15;99353.22;10384256;28;20131;-81
2022/09/27 13:01:21;;;;;;;0.40;0.40;;;;;;;9.35;91.87;99350.63;10380195;28;20042;-80
2022/09/27 13:06:46;;;;;;;5.22;0.80;;;;;;;9.27;92.02;99360.22;10398414;28;20049;-83
2022/09/27 13:12:05;;;;;;;1.73;0.60;;;;;;;9.31;92.32;99348.91;10368711;28;20152;-81
2022/09/27 13:17:32;;;;;;;1.83;1.00;;;;;;;9.37;92.45;99351.50;10390565;28;20053;-82
2022/09/27 13:22:39;;;;;;;2.47;0.80;;;;;;;9.48;92.59;99351.50;10379297;28;20103;-82
2022/09/27 13:28:37;;;;;;;9.82;3.15;;;;;;;9.57;93.05;99343.63;10389542;28;20142;-81
2022/09/27 13:33:53;;;;;;;5.55;1.10;;;;;;;9.58;93.06;99350.59;10380220;28;20049;-81
2022/09/27 13:39:04;;;;;;;12.25;4.00;;;;;;;9.83;93.09;99361.00;10364763;28;20548;-81
2022/09/27 13:44:28;;;;;;;11.05;6.68;;;;;;;9.88;93.06;99364.47;10396264;28;20136;-81
2022/09/27 13:49:38;;;;;;;1.70;1.08;;;;;;;10.11;93.18;99366.16;10384280;28;20512;-80
2022/09/27 13:54:57;;;;;;;1.02;0.60;;;;;;;10.25;92.74;99360.00;10406592;28;20080;-81
2022/09/27 14:00:07;;;;;;;2.95;0.75;;;;;;;10.46;92.61;99357.28;10373411;28;20081;-81
2022/09/27 14:05:27;;;;;;;;;;;;;;;10.58;92.35;99346.75;10373122;28;20053;-81
2022/09/27 14:10:30;;;;;;;6.32;1.75;;;;;;;10.68;91.82;99356.28;10378117;28;20444;-81
2022/09/27 14:15:34;;;;;;;2.17;0.90;;;;;;;10.93;91.57;99357.00;10375142;28;20053;-81
2022/09/27 14:20:41;;;;;;;6.93;1.55;;;;;;;11.22;91.33;99357.66;10386271;28;20513;-80
2022/09/27 14:26:26;;;;;;;13.37;4.20;;;;;;;11.42;90.73;99357.47;10392276;28;20057;-80
2022/09/27 14:31:28;;;;;;;4.85;1.55;;;;;;;11.42;89.96;99355.72;10381544;28;20045;-80
2022/09/27 14:42:25;;;;;;;3.72;1.83;;;;;;;11.26;89.45;99373.34;10383204;28;20042;-80
2022/09/27 14:47:27;;;;;;;2.65;0.80;;;;;;;11.01;89.24;99367.41;10382382;28;20046;-80
2022/09/27 14:52:34;;;;;;;3.83;1.23;;;;;;;10.91;89.16;99370.97;10407698;28;20076;-80
2022/09/27 14:57:38;;;;;;;1.55;0.70;;;;;;;10.73;89.15;99371.97;10386914;28;20045;-79
2022/09/27 15:02:42;;;;;;;3.85;1.30;;;;;;;10.52;88.74;99375.56;10400108;28;20045;-79
2022/09/27 15:07:45;;;;;;;3.60;1.35;;;;;;;10.37;88.14;99380.03;10405385;28;20059;-79
2022/09/27 15:12:56;;;;;;;4.95;1.92;;;;;;;10.26;87.67;99381.78;10396393;28;20041;-80
2022/09/27 15:18:02;;;;;;;0.88;0.50;;;;;;;10.19;88.04;99383.56;10387773;28;20139;-77
2022/09/27 15:23:34;;;;;;;3.90;1.35;;;;;;;10.20;88.35;99385.28;10390368;28;20722;-78
2022/09/27 15:28:41;;;;;;;1.67;0.60;;;;;;;10.11;88.98;99376.59;10387343;28;20049;-78
2022/09/27 15:33:53;;;;;;;1.15;0.60;;;;;;;10.07;88.99;99384.47;10398568;28;20061;-79
2022/09/27 15:39:08;;;;;;;1.88;0.73;;;;;;;9.91;89.25;99385.38;10386391;28;20064;-78
2022/09/27 15:44:41;;;;;;;5.20;1.58;;;;;;;9.93;89.44;99399.31;10404194;28;20420;-79
2022/09/27 15:49:43;;;;;;;1.38;0.50;;;;;;;9.83;89.67;99408.94;10374047;28;20681;-78
2022/09/27 15:54:45;;;;;;;5.40;1.63;;;;;;;9.60;89.73;99405.47;10395572;28;20061;-78
2022/09/27 15:59:47;;;;;;;42.60;12.77;;;;;;;9.55;90.13;99418.56;10401768;28;20107;-78
2022/09/27 16:04:48;;;;;;;96.15;24.67;;;;;;;9.40;90.18;99418.53;10399841;28;20045;-78
2022/09/27 16:09:53;;;;;;;3.33;0.98;;;;;;;9.18;90.31;99416.78;10399505;28;20241;-77
2022/09/27 16:14:55;;;;;;;5.28;1.92;;;;;;;9.08;90.39;99422.00;10378886;28;20154;-78
2022/09/27 16:19:57;;;;;;;3.47;0.88;;;;;;;9.05;90.92;99417.66;10367641;28;20417;-78
2022/09/27 16:24:58;;;;;;;5.07;1.63;;;;;;;9.01;91.20;99422.00;10340794;28;20545;-78
2022/09/27 16:30:00;;;;;;;3.15;1.45;;;;;;;8.85;90.99;99422.84;10397111;28;20131;-78
2022/09/27 16:35:02;;;;;;;1.95;0.88;;;;;;;8.76;91.36;99420.22;10388019;28;20065;-78
2022/09/27 16:40:07;;;;;;;1.48;0.88;;;;;;;8.75;91.59;99421.06;10397709;28;20056;-78
2022/09/27 16:45:09;;;;;;;7.30;1.60;;;;;;;8.69;91.77;99428.88;10388416;28;20065;-78
2022/09/27 16:55:38;;;;;;;;;;;;;;;8.69;91.84;99428.88;10408746;28;20052;-77
2022/09/27 17:00:40;;;;;;;3.90;1.17;;;;;;;8.53;91.86;99431.47;10408952;28;19986;-77
2022/09/27 17:05:42;;;;;;;1.90;0.85;;;;;;;8.44;92.19;99424.47;10385351;28;20619;-78
2022/09/27 17:10:44;;;;;;;5.03;1.30;;;;;;;8.36;92.28;99420.94;10395866;28;20052;-78
2022/09/27 17:15:50;;;;;;;1.58;0.70;;;;;;;8.26;92.40;99425.22;10383047;28;20054;-83
2022/09/27 17:21:02;;;;;;;3.65;1.08;;;;;;;8.17;92.70;99427.78;10376027;28;20049;-79
2022/09/27 17:26:21;;;;;;;2.50;0.90;;;;;;;8.06;92.85;99426.84;10368011;28;20543;-79
2022/09/27 17:31:24;;;;;;;4.38;1.75;;;;;;;7.99;92.67;99431.16;10371132;28;20049;-80
2022/09/27 17:36:28;;;;;;;3.72;1.55;;;;;;;7.91;92.54;99430.22;10366108;28;20042;-80
2022/09/27 17:41:32;;;;;;;3.05;1.35;;;;;;;7.82;92.53;99436.28;10397646;28;20323;-79
2022/09/27 17:46:40;;;;;;;33.30;11.73;;;;;;;7.77;92.81;99438.84;10394017;28;20104;-79
2022/09/27 17:51:46;;;;;;;16.55;5.93;;;;;;;7.69;93.08;99437.06;10387221;28;20584;-80
2022/09/27 17:56:49;;;;;;;6.13;1.50;;;;;;;7.56;92.87;99441.28;10390022;28;20050;-79
2022/09/27 18:01:50;;;;;;;4.97;1.90;;;;;;;7.46;93.14;99432.56;10379611;28;20892;-79
2022/09/27 18:06:52;;;;;;;10.75;2.22;;;;;;;7.36;93.37;99438.53;10376863;28;20045;-80
2022/09/27 18:11:54;;;;;;;11.40;3.17;;;;;;;7.26;93.38;99443.63;10379579;28;20053;-79
2022/09/27 18:16:56;;;;;;;4.38;1.73;;;;;;;7.24;93.68;99439.28;10399541;28;20128;-79
2022/09/27 18:21:59;;;;;;;5.38;1.92;;;;;;;7.17;93.99;99433.16;10384212;28;20046;-79
2022/09/27 18:27:02;;;;;;;5.13;2.42;;;;;;;7.14;93.86;99438.31;10399172;28;20069;-80
2022/09/27 18:32:03;;;;;;;8.77;2.20;;;;;;;7.08;94.29;99435.66;10375171;28;20061;-79
2022/09/27 18:37:05;;;;;;;4.93;2.15;;;;;;;7.01;94.27;99439.06;10395762;28;20077;-80
2022/09/27 18:42:07;;;;;;;6.22;2.42;;;;;;;6.96;94.48;99451.16;10390944;28;20584;-79
2022/09/27 18:47:09;;;;;;;6.70;3.05;;;;;;;6.92;94.61;99451.97;10397668;28;20060;-80
2022/09/27 18:52:11;;;;;;;7.00;3.50;;;;;;;6.84;94.69;99446.69;10372730;28;20421;-79
2022/09/27 18:57:13;;;;;;;8.63;2.85;;;;;;;6.81;94.95;99455.34;10393357;28;20088;-80
2022/09/27 19:02:15;;;;;;;6.43;2.70;;;;;;;6.78;95.12;99454.44;10378684;28;20060;-80
2022/09/27 19:07:16;;;;;;;3.85;1.65;;;;;;;6.69;94.92;99442.19;10388338;28;20459;-80
2022/09/27 19:12:18;;;;;;;6.30;2.55;;;;;;;6.66;95.14;99447.38;10378401;28;20073;-80
2022/09/27 19:17:20;;;;;;;6.07;2.00;;;;;;;6.63;95.25;99450.81;10397146;28;20049;-80
2022/09/27 19:22:22;;;;;;;4.28;2.00;;;;;;;6.57;95.16;99449.88;10374077;28;20491;-81
2022/09/27 19:27:23;;;;;;;4.45;2.28;;;;;;;6.54;95.67;99455.91;10379922;28;20616;-80
2022/09/27 19:32:25;;;;;;;3.13;1.50;;;;;;;6.45;95.57;99451.44;10392019;28;20571;-81
2022/09/27 19:37:27;;;;;;;3.63;1.50;;;;;;;6.42;95.50;99456.63;10376789;28;20453;-80
2022/09/27 19:42:28;;;;;;;9.55;2.80;;;;;;;6.37;95.82;99463.50;10385730;28;20042;-80
2022/09/27 19:47:30;;;;;;;4.20;2.00;;;;;;;6.33;95.71;99456.50;10383307;28;20050;-79
2022/09/27 19:52:32;;;;;;;5.05;1.70;;;;;;;6.33;95.92;99456.50;10390491;28;20055;-79
2022/09/27 19:57:34;;;;;;;6.28;2.03;;;;;;;6.35;96.07;99455.69;10378452;28;20871;-80
2022/09/27 20:02:36;;;;;;;9.07;2.10;;;;;;;6.37;95.96;99453.97;10373253;28;21326;-79
2022/09/27 20:07:37;;;;;;;12.32;3.97;;;;;;;6.36;96.16;99461.75;10374452;28;20049;-80
2022/09/27 20:12:39;;;;;;;9.48;3.33;;;;;;;6.32;96.24;99466.03;10393805;28;20045;-81
2022/09/27 20:17:41;;;;;;;6.57;2.58;;;;;;;6.33;96.21;99452.16;10395784;28;20050;-80
2022/09/27 20:22:43;;;;;;;7.45;3.30;;;;;;;6.33;96.40;99452.16;10393545;28;20528;-80
2022/09/27 20:27:44;;;;;;;7.50;2.55;;;;;;;6.29;96.45;99453.00;10403933;28;20616;-81
2022/09/27 20:33:39;;;;;;;4.05;1.85;;;;;;;6.28;96.52;99447.78;10409295;28;20133;-81
2022/09/27 20:38:08;;;;;;;5.22;2.70;;;;;;;6.23;96.71;99444.25;10405008;28;20050;-80
2022/09/27 20:43:09;;;;;;;4.60;1.90;;;;;;;6.18;96.59;99451.97;10407647;28;20080;-80
2022/09/27 20:48:11;;;;;;;5.93;2.55;;;;;;;6.16;96.50;99448.50;10394111;28;20484;-81
2022/09/27 20:53:13;;;;;;;7.47;2.22;;;;;;;6.16;96.68;99444.16;10402706;28;20061;-79
2022/09/27 20:58:14;;;;;;;9.07;2.63;;;;;;;6.11;96.78;99443.25;10380261;28;20062;-81
2022/09/27 21:03:17;;;;;;;7.93;2.50;;;;;;;6.11;96.86;99439.75;10392901;28;20084;-81
2022/09/27 21:08:23;;;;;;;11.02;2.10;;;;;;;6.09;96.95;99442.31;10405790;28;20308;-80
2022/09/27 21:13:24;;;;;;;6.25;2.70;;;;;;;6.04;96.99;99438.81;10392615;28;20087;-81
2022/09/27 21:18:26;;;;;;;4.05;2.33;;;;;;;6.01;96.92;99430.97;10403976;28;20457;-80
2022/09/27 21:23:29;;;;;;;5.05;1.80;;;;;;;6.03;96.79;99437.03;10410647;28;20444;-80
2022/09/27 21:28:38;;;;;;;5.43;2.20;;;;;;;6.04;97.08;99445.75;10407564;28;20049;-81
2022/09/27 21:33:40;;;;;;;6.72;2.25;;;;;;;6.06;97.13;99439.69;10414614;28;20051;-81
2022/09/27 21:38:42;;;;;;;7.25;2.65;;;;;;;6.09;97.37;99446.66;10413754;28;20056;-81
2022/09/27 21:43:45;;;;;;;4.93;2.55;;;;;;;6.10;97.35;99436.28;10403535;28;20055;-81
2022/09/27 21:48:48;;;;;;;4.80;2.45;;;;;;;6.13;97.32;99435.47;10391066;28;20135;-83
2022/09/27 21:53:55;;;;;;;6.47;2.60;;;;;;;6.15;97.44;99441.53;10409410;28;20050;-82
2022/09/27 21:58:57;;;;;;;6.38;2.42;;;;;;;6.14;97.49;99439.78;10388509;28;20072;-81
2022/09/27 22:04:00;;;;;;;8.68;2.80;;;;;;;6.12;97.35;99437.16;10401064;28;20061;-82
2022/09/27 22:09:10;;;;;;;8.25;3.30;;;;;;;6.09;97.49;99433.66;10408219;28;20053;-81
2022/09/27 22:14:14;;;;;;;5.68;3.05;;;;;;;6.05;97.71;99434.47;10387913;28;20063;-81
2022/09/27 22:19:15;;;;;;;9.98;2.47;;;;;;;6.03;97.52;99439.66;10409574;28;20480;-81
2022/09/27 22:24:18;;;;;;;4.95;2.22;;;;;;;6.00;97.66;99442.19;10389068;28;20100;-81
2022/09/27 22:29:20;;;;;;;7.15;2.53;;;;;;;5.91;97.71;99440.31;10393825;28;20517;-81
2022/09/27 22:34:27;;;;;;;5.38;2.45;;;;;;;5.84;97.53;99431.56;10384576;28;20128;-82
2022/09/27 22:39:29;;;;;;;6.68;2.42;;;;;;;5.76;97.63;99433.16;10384964;28;20529;-82
2022/09/27 22:44:33;;;;;;;7.28;3.10;;;;;;;5.65;97.53;99432.16;10383326;28;20145;-82
2022/09/27 22:49:34;;;;;;;6.20;2.45;;;;;;;5.56;97.54;99427.69;10386357;28;20053;-82
2022/09/27 22:54:36;;;;;;;5.38;2.50;;;;;;;5.47;97.52;99419.75;10372807;28;20109;-81
2022/09/27 22:59:38;;;;;;;5.88;2.60;;;;;;;5.41;97.58;99415.31;10391781;28;20046;-81
2022/09/27 23:04:40;;;;;;;6.25;2.38;;;;;;;5.34;97.30;99408.28;10415295;28;20115;-83
2022/09/27 23:09:42;;;;;;;20.77;2.90;;;;;;;5.27;97.46;99396.09;10404196;28;20052;-82
2022/09/27 23:14:43;;;;;;;6.43;2.45;;;;;;;5.23;97.37;99396.88;10403472;28;20041;-81
2022/09/27 23:19:45;;;;;;;5.10;2.45;;;;;;;5.16;97.50;99389.81;10401138;28;20045;-82
2022/09/27 23:24:46;;;;;;;7.13;2.88;;;;;;;5.09;97.50;99397.50;10408954;28;20509;-82
2022/09/27 23:29:48;;;;;;;6.25;3.42;;;;;;;5.03;97.44;99397.41;10392454;28;20064;-81
2022/09/27 23:34:50;;;;;;;7.53;3.13;;;;;;;5.00;97.42;99392.16;10382059;28;20062;-81
2022/09/27 23:39:51;;;;;;;5.90;2.83;;;;;;;4.98;97.41;99393.84;10409151;28;20053;-82
2022/09/27 23:44:53;;;;;;;13.63;3.03;;;;;;;4.94;97.42;99386.88;10407840;28;20052;-83
2022/09/27 23:49:57;;;;;;;8.77;2.97;;;;;;;4.91;97.33;99381.63;10403243;28;20045;-81
2022/09/27 23:54:58;;;;;;;6.43;2.75;;;;;;;4.91;97.33;99381.63;10400323;28;20129;-82
